Julian Carroll Airport Jackson US
ICAO: KJKL
IATA: JKL
Category: Medium
Scheduled Services: No

Elevation: 1381 ft
TransAlt. 18000 ft.

Airport Communications:
ASOS:118.375
INDIANAPOLIS CNTR:126.57
CTAF/UNICOM:122.8

KJKL Zoom In..

If you have problems with the map follow the link
https://www.worldairports.se/pages/airport.php?
ICAO=KJKL

Runways:

(A) RW 01 length 4400 ft width 75 ft
---- / hdg 12

(B) RW 19 length 4400 ft width 75 ft
---- / hdg 192

Location; KJKL
Day. 21 / Time. 17.53 Zulu
* Altimeter: 30.30
* Temperature: 07° c. 44.6°f.
* Wind from: VRB° Speed 03 kn.
Dewpoint: -02° c.
Visibility: 10 Statute Miles.
Clouds: Clear (automated report).

KJKL 211753Z AUTO VRB03KT 10SM CLR 07/M02 A3030 RMK AO2 SLP265 T00721022 10083 20006 58026


Wind From VRB°
Speed 03 kn.

 
 
jpsmedia.com for Web Design worldairports.se 2018   terms of use